Time;durP1;ratioP1;P1;durP2;ratioP2;P2;SDS_P1;SDS_P2;PMS_P1;PMS_P2;Temp;Humidity;BMP_temperature;BMP_pressure;BME280_temperature;BME280_humidity;BME280_pressure;Samples;Min_cycle;Max_cycle;Signal;HPM_P1;HPM_P2
2021/11/06 00:00:24;;;;;;;38.97;15.70;;;;;;;;;;4974535;28;20050;-69
2021/11/06 00:02:51;;;;;;;96.55;19.77;;;;;;;;;;4986671;28;20516;-70
2021/11/06 00:05:18;;;;;;;43.83;16.70;;;;;;;;;;4973266;28;20445;-70
2021/11/06 00:07:45;;;;;;;46.13;16.75;;;;;;;;;;4992197;28;20401;-69
2021/11/06 00:10:12;;;;;;;55.58;18.92;;;;;;;;;;4973058;28;20105;-70
2021/11/06 00:12:39;;;;;;;56.25;18.15;;;;;;;;;;4973035;28;20098;-70
2021/11/06 00:15:06;;;;;;;122.57;20.45;;;;;;;;;;4972903;28;20087;-69
2021/11/06 00:17:34;;;;;;;83.25;18.00;;;;;;;;;;4978732;28;20100;-70
2021/11/06 00:20:02;;;;;;;94.97;19.65;;;;;;;;;;4992597;28;20054;-70
2021/11/06 00:22:29;;;;;;;49.60;17.50;;;;;;;;;;4992261;28;20062;-70
2021/11/06 00:24:55;;;;;;;51.15;19.17;;;;;;;;;;4992423;28;20050;-70
2021/11/06 00:27:22;;;;;;;41.40;18.35;;;;;;;;;;4972995;28;20461;-69
2021/11/06 00:29:49;;;;;;;40.28;18.27;;;;;;;;;;4972952;28;20137;-70
2021/11/06 00:32:15;;;;;;;35.47;16.38;;;;;;;;;;4972712;28;20051;-70
2021/11/06 00:34:42;;;;;;;32.75;16.80;;;;;;;;;;4972947;28;20098;-70
2021/11/06 00:37:09;;;;;;;31.63;16.75;;;;;;;;;;4989967;28;20097;-69
2021/11/06 00:39:35;;;;;;;38.20;17.25;;;;;;;;;;4985420;28;20562;-70
2021/11/06 00:42:02;;;;;;;34.75;16.88;;;;;;;;;;4972504;28;20141;-70
2021/11/06 00:44:29;;;;;;;52.03;18.60;;;;;;;;;;4972967;28;20318;-69
2021/11/06 00:46:56;;;;;;;51.33;18.70;;;;;;;;;;4972597;28;20059;-69
2021/11/06 00:49:22;;;;;;;44.85;18.08;;;;;;;;;;4972892;28;20059;-69
2021/11/06 00:51:50;;;;;;;74.05;19.13;;;;;;;;;;4972967;28;20046;-70
2021/11/06 00:54:17;;;;;;;38.22;17.52;;;;;;;;;;4988251;28;20050;-70
2021/11/06 00:56:43;;;;;;;40.55;17.15;;;;;;;;;;4992390;28;20054;-70
2021/11/06 00:59:10;;;;;;;28.60;17.00;;;;;;;;;;4992067;28;20125;-70
2021/11/06 01:01:37;;;;;;;34.72;17.17;;;;;;;;;;4983866;28;20077;-69
2021/11/06 01:04:06;;;;;;;33.42;16.95;;;;;;;;;;4986823;28;20046;-70
2021/11/06 01:06:33;;;;;;;36.13;16.85;;;;;;;;;;4984021;28;20047;-69
2021/11/06 01:08:59;;;;;;;34.70;16.80;;;;;;;;;;4972596;28;20170;-69
2021/11/06 01:11:26;;;;;;;37.53;16.30;;;;;;;;;;4972430;28;20050;-70
2021/11/06 01:13:53;;;;;;;28.23;15.65;;;;;;;;;;4975937;28;20055;-70
2021/11/06 01:16:20;;;;;;;40.17;15.63;;;;;;;;;;4976236;28;20050;-70
2021/11/06 01:18:46;;;;;;;27.58;14.95;;;;;;;;;;4990473;28;20050;-70
2021/11/06 01:21:13;;;;;;;28.15;15.82;;;;;;;;;;4979769;28;20061;-71
2021/11/06 01:23:39;;;;;;;49.33;15.60;;;;;;;;;;4975974;28;20109;-69
2021/11/06 01:26:06;;;;;;;37.80;16.30;;;;;;;;;;4976033;28;20058;-70
2021/11/06 01:28:33;;;;;;;29.30;15.85;;;;;;;;;;4975979;28;20097;-70
2021/11/06 01:30:59;;;;;;;31.35;15.80;;;;;;;;;;4975818;28;20102;-70
2021/11/06 01:33:26;;;;;;;39.90;14.57;;;;;;;;;;4987386;28;20051;-69
2021/11/06 01:35:53;;;;;;;42.22;15.18;;;;;;;;;;4979912;28;20050;-70
2021/11/06 01:38:19;;;;;;;103.50;18.10;;;;;;;;;;4975671;28;20109;-70
2021/11/06 01:40:46;;;;;;;77.20;16.25;;;;;;;;;;4974642;28;20456;-70
2021/11/06 01:43:14;;;;;;;38.17;15.38;;;;;;;;;;4975484;28;20573;-70
2021/11/06 01:45:41;;;;;;;39.40;15.90;;;;;;;;;;4981084;28;20038;-69
2021/11/06 01:48:07;;;;;;;31.00;14.63;;;;;;;;;;4994806;28;20053;-69
2021/11/06 01:50:34;;;;;;;40.05;14.98;;;;;;;;;;4990237;28;20042;-69
2021/11/06 01:53:01;;;;;;;44.85;16.30;;;;;;;;;;4975263;28;20050;-70
2021/11/06 01:55:27;;;;;;;32.10;15.45;;;;;;;;;;4979101;28;20043;-69
2021/11/06 01:57:54;;;;;;;49.00;17.95;;;;;;;;;;4994918;28;20050;-69
2021/11/06 02:00:24;;;;;;;46.75;16.45;;;;;;;;;;4986753;28;20101;-70
2021/11/06 02:02:51;;;;;;;97.90;17.73;;;;;;;;;;4975162;28;20051;-69
2021/11/06 02:05:18;;;;;;;40.00;16.60;;;;;;;;;;4981983;28;20053;-69
2021/11/06 02:07:44;;;;;;;47.20;16.27;;;;;;;;;;4994736;28;20054;-69
2021/11/06 02:10:13;;;;;;;32.65;16.13;;;;;;;;;;4992833;28;20668;-70
2021/11/06 02:12:40;;;;;;;42.63;15.65;;;;;;;;;;4975126;28;20106;-70
2021/11/06 02:15:09;;;;;;;40.17;16.10;;;;;;;;;;4975979;28;20046;-69
2021/11/06 02:17:35;;;;;;;85.55;17.40;;;;;;;;;;4993733;28;20050;-71
2021/11/06 02:20:04;;;;;;;55.33;17.35;;;;;;;;;;4994367;28;20058;-70
2021/11/06 02:22:31;;;;;;;76.05;17.85;;;;;;;;;;4994228;28;20117;-69
2021/11/06 02:24:58;;;;;;;57.30;16.70;;;;;;;;;;4987129;28;20497;-70
2021/11/06 02:27:25;;;;;;;53.53;18.00;;;;;;;;;;4974827;28;20046;-69
2021/11/06 02:29:51;;;;;;;92.30;17.17;;;;;;;;;;4990103;28;20291;-70
2021/11/06 02:32:18;;;;;;;146.43;18.38;;;;;;;;;;4981688;28;20058;-70
2021/11/06 02:34:45;;;;;;;78.90;17.13;;;;;;;;;;4991546;28;20042;-69
2021/11/06 02:37:12;;;;;;;111.25;18.23;;;;;;;;;;4993937;28;20062;-70
2021/11/06 02:39:39;;;;;;;136.45;19.02;;;;;;;;;;4994261;28;20105;-70
2021/11/06 02:42:08;;;;;;;126.88;18.58;;;;;;;;;;4993842;28;20054;-70
2021/11/06 02:44:35;;;;;;;112.35;17.35;;;;;;;;;;4994095;28;20051;-70
2021/11/06 02:47:02;;;;;;;113.63;17.17;;;;;;;;;;4977695;28;20398;-69
2021/11/06 02:49:29;;;;;;;161.23;18.05;;;;;;;;;;4974683;28;20468;-70
2021/11/06 02:51:56;;;;;;;77.63;16.42;;;;;;;;;;4979184;28;20057;-70
2021/11/06 02:54:23;;;;;;;57.13;17.02;;;;;;;;;;4974408;28;20051;-70
2021/11/06 02:56:50;;;;;;;127.45;18.83;;;;;;;;;;4989215;28;20058;-69
2021/11/06 02:59:17;;;;;;;90.00;15.55;;;;;;;;;;4988984;28;20433;-70
2021/11/06 03:01:44;;;;;;;138.30;17.45;;;;;;;;;;4982897;28;20050;-69
2021/11/06 03:04:12;;;;;;;61.47;16.35;;;;;;;;;;4990383;28;20583;-69
2021/11/06 03:06:39;;;;;;;40.05;16.23;;;;;;;;;;4978253;28;20097;-70
2021/11/06 03:09:06;;;;;;;58.40;17.25;;;;;;;;;;4974080;28;20105;-69
2021/11/06 03:11:34;;;;;;;61.95;16.65;;;;;;;;;;4974256;28;20101;-70
2021/11/06 03:14:01;;;;;;;248.18;22.00;;;;;;;;;;4973834;28;20501;-69
2021/11/06 03:16:28;;;;;;;58.40;16.67;;;;;;;;;;4973853;28;20494;-69
2021/11/06 03:18:55;;;;;;;231.13;21.58;;;;;;;;;;4992031;28;20100;-70
2021/11/06 03:21:22;;;;;;;150.57;19.55;;;;;;;;;;4993164;28;20054;-70
2021/11/06 03:23:49;;;;;;;137.95;18.67;;;;;;;;;;4992145;28;20467;-70
2021/11/06 03:26:15;;;;;;;50.45;16.55;;;;;;;;;;4976123;28;20058;-70
2021/11/06 03:28:42;;;;;;;114.05;18.10;;;;;;;;;;4988553;28;20529;-70
2021/11/06 03:31:08;;;;;;;130.02;17.48;;;;;;;;;;4973697;28;20469;-70
2021/11/06 03:33:35;;;;;;;131.02;18.50;;;;;;;;;;4973592;28;20051;-70
2021/11/06 03:36:02;;;;;;;55.90;15.95;;;;;;;;;;4988866;28;20046;-70
2021/11/06 03:38:28;;;;;;;78.43;18.95;;;;;;;;;;4992986;28;20393;-70
2021/11/06 03:40:55;;;;;;;133.25;17.85;;;;;;;;;;4992988;28;20050;-69
2021/11/06 03:43:22;;;;;;;41.55;15.30;;;;;;;;;;4992886;28;20049;-70
2021/11/06 03:45:48;;;;;;;25.40;14.38;;;;;;;;;;4992826;28;20431;-70
2021/11/06 03:48:15;;;;;;;94.93;20.40;;;;;;;;;;5039820;23;20111;-67
2021/11/06 03:50:41;;;;;;;116.88;18.60;;;;;;;;;;5032158;28;20049;-67
2021/11/06 03:53:08;;;;;;;63.10;17.20;;;;;;;;;;5032037;28;20053;-68
2021/11/06 03:55:35;;;;;;;85.18;16.70;;;;;;;;;;5013447;28;20052;-68
2021/11/06 03:58:02;;;;;;;55.60;16.17;;;;;;;;;;5012202;28;20108;-68
2021/11/06 04:00:28;;;;;;;73.93;17.58;;;;;;;;;;5023128;28;20050;-68
2021/11/06 04:02:55;;;;;;;44.45;16.30;;;;;;;;;;5016648;28;20104;-68
2021/11/06 04:05:22;;;;;;;90.13;18.58;;;;;;;;;;5024985;28;20303;-68
2021/11/06 04:07:48;;;;;;;78.15;19.13;;;;;;;;;;5031891;28;20049;-68
2021/11/06 04:10:15;;;;;;;63.67;19.15;;;;;;;;;;5020540;28;20054;-68
2021/11/06 04:12:42;;;;;;;39.00;16.70;;;;;;;;;;5010770;28;20511;-68
2021/11/06 04:15:12;;;;;;;50.75;17.85;;;;;;;;;;5013354;28;20049;-68
2021/11/06 04:17:39;;;;;;;63.53;17.67;;;;;;;;;;5021644;28;20054;-68
2021/11/06 04:20:07;;;;;;;39.10;17.60;;;;;;;;;;5012374;28;20104;-68
2021/11/06 04:22:34;;;;;;;57.08;18.70;;;;;;;;;;5011917;28;20464;-68
2021/11/06 04:25:03;;;;;;;46.83;17.98;;;;;;;;;;5012332;28;20054;-68
2021/11/06 04:27:29;;;;;;;40.35;18.35;;;;;;;;;;5010985;28;20104;-68
2021/11/06 04:29:56;;;;;;;38.90;18.05;;;;;;;;;;5011902;28;20510;-68
2021/11/06 04:32:22;;;;;;;36.80;17.30;;;;;;;;;;5031363;28;20077;-68
2021/11/06 04:34:49;;;;;;;42.00;18.52;;;;;;;;;;5029835;28;20045;-68
2021/11/06 04:37:16;;;;;;;30.67;16.42;;;;;;;;;;5031427;28;20049;-68
2021/11/06 04:39:42;;;;;;;35.78;16.30;;;;;;;;;;5031687;28;20393;-68
2021/11/06 04:42:09;;;;;;;35.80;16.27;;;;;;;;;;5031616;28;20053;-68
2021/11/06 04:44:36;;;;;;;51.40;17.92;;;;;;;;;;5029520;28;20099;-68
2021/11/06 04:47:02;;;;;;;53.55;15.90;;;;;;;;;;5024546;28;20053;-68
2021/11/06 04:49:29;;;;;;;45.65;15.20;;;;;;;;;;5035637;28;20057;-68
2021/11/06 04:51:56;;;;;;;54.25;16.27;;;;;;;;;;5035248;28;20049;-68
2021/11/06 04:54:23;;;;;;;41.63;14.57;;;;;;;;;;5035347;28;20114;-68
2021/11/06 04:56:50;;;;;;;35.08;14.57;;;;;;;;;;5015488;28;20463;-68
2021/11/06 04:59:17;;;;;;;50.00;15.55;;;;;;;;;;5015942;28;20054;-68
2021/11/06 05:01:44;;;;;;;45.70;15.45;;;;;;;;;;5028377;28;20111;-67
2021/11/06 05:04:10;;;;;;;30.90;14.75;;;;;;;;;;5034908;28;20045;-68
2021/11/06 05:06:37;;;;;;;53.80;15.68;;;;;;;;;;5026450;28;20050;-67
2021/11/06 05:09:03;;;;;;;51.80;16.55;;;;;;;;;;5015326;28;20116;-67
2021/11/06 05:11:30;;;;;;;83.63;17.38;;;;;;;;;;5015318;28;20054;-67
2021/11/06 05:13:58;;;;;;;89.78;16.77;;;;;;;;;;5015344;28;20053;-67
2021/11/06 05:16:24;;;;;;;30.77;14.75;;;;;;;;;;5031574;28;20103;-68
2021/11/06 05:18:53;;;;;;;26.42;15.25;;;;;;;;;;5035028;28;20119;-67
2021/11/06 05:21:21;;;;;;;34.65;16.42;;;;;;;;;;5034335;28;20053;-67
2021/11/06 05:23:49;;;;;;;62.63;17.85;;;;;;;;;;5015108;28;20111;-68
2021/11/06 05:26:16;;;;;;;32.35;15.65;;;;;;;;;;5017196;28;20104;-68
2021/11/06 05:28:42;;;;;;;36.70;16.67;;;;;;;;;;5014945;28;20563;-67
2021/11/06 05:31:10;;;;;;;32.97;16.23;;;;;;;;;;5015144;28;20053;-68
2021/11/06 05:33:36;;;;;;;33.20;15.18;;;;;;;;;;5014809;28;20096;-68
2021/11/06 05:36:03;;;;;;;31.65;15.23;;;;;;;;;;5027551;28;20096;-68
2021/11/06 05:38:30;;;;;;;57.55;16.13;;;;;;;;;;5034572;28;20061;-68
2021/11/06 05:40:56;;;;;;;33.55;14.80;;;;;;;;;;5034685;28;20462;-68
2021/11/06 05:43:23;;;;;;;32.50;15.05;;;;;;;;;;5032497;28;20566;-67
2021/11/06 05:45:51;;;;;;;71.57;16.17;;;;;;;;;;5021967;28;20108;-68
2021/11/06 05:48:18;;;;;;;38.92;15.55;;;;;;;;;;5034515;28;20057;-68
2021/11/06 05:50:44;;;;;;;29.20;15.75;;;;;;;;;;5020403;28;20049;-68
2021/11/06 05:53:11;;;;;;;33.70;16.98;;;;;;;;;;5014495;28;20049;-67
2021/11/06 05:55:38;;;;;;;38.05;18.17;;;;;;;;;;5014656;28;20491;-68
2021/11/06 05:58:05;;;;;;;35.65;17.83;;;;;;;;;;5014088;28;20049;-68
2021/11/06 06:00:32;;;;;;;38.20;17.40;;;;;;;;;;5013942;28;20100;-67
2021/11/06 06:02:58;;;;;;;44.55;17.88;;;;;;;;;;5014638;28;20050;-67
2021/11/06 06:05:25;;;;;;;39.40;17.50;;;;;;;;;;5014281;28;20073;-68
2021/11/06 06:07:52;;;;;;;55.30;19.08;;;;;;;;;;5014338;28;20054;-68
2021/11/06 06:10:19;;;;;;;127.43;19.95;;;;;;;;;;5014410;28;20049;-67
2021/11/06 06:12:50;;;;;;;55.65;18.95;;;;;;;;;;5014275;28;20058;-67
2021/11/06 06:15:18;;;;;;;50.75;19.08;;;;;;;;;;5014189;28;20060;-68
2021/11/06 06:17:45;;;;;;;105.85;21.55;;;;;;;;;;5014173;28;20472;-68
2021/11/06 06:20:11;;;;;;;62.35;18.85;;;;;;;;;;5013963;28;20504;-68
2021/11/06 06:22:38;;;;;;;48.40;18.20;;;;;;;;;;5014045;28;20097;-68
2021/11/06 06:25:06;;;;;;;49.08;19.25;;;;;;;;;;5014017;28;20058;-67
2021/11/06 06:27:33;;;;;;;63.00;18.75;;;;;;;;;;5012997;28;20050;-68
2021/11/06 06:29:59;;;;;;;56.10;18.05;;;;;;;;;;5014065;28;20501;-69
2021/11/06 06:32:26;;;;;;;86.65;20.38;;;;;;;;;;5026304;28;20049;-68
2021/11/06 06:34:53;;;;;;;51.42;17.73;;;;;;;;;;5028407;28;20050;-68
2021/11/06 06:37:19;;;;;;;49.03;17.27;;;;;;;;;;5017567;28;20464;-68
2021/11/06 06:39:46;;;;;;;51.70;18.35;;;;;;;;;;5032310;28;20061;-67
2021/11/06 06:42:13;;;;;;;47.38;18.50;;;;;;;;;;5029241;28;20049;-67
2021/11/06 06:44:39;;;;;;;50.40;18.25;;;;;;;;;;5031482;28;20103;-68
2021/11/06 06:47:06;;;;;;;47.67;16.67;;;;;;;;;;5029889;28;20554;-66
2021/11/06 06:49:33;;;;;;;39.15;16.80;;;;;;;;;;5031635;28;20463;-66
2021/11/06 06:51:59;;;;;;;38.45;16.05;;;;;;;;;;5030828;28;20323;-66
2021/11/06 06:54:26;;;;;;;42.03;16.20;;;;;;;;;;5017653;28;20058;-66
2021/11/06 06:56:53;;;;;;;44.42;16.17;;;;;;;;;;5011110;28;20049;-66
2021/11/06 06:59:19;;;;;;;36.30;16.33;;;;;;;;;;5011549;28;20050;-67
2021/11/06 07:01:46;;;;;;;45.25;17.02;;;;;;;;;;5020337;28;20457;-66
2021/11/06 07:04:14;;;;;;;36.97;15.77;;;;;;;;;;5013145;28;20100;-66
2021/11/06 07:06:41;;;;;;;43.22;16.02;;;;;;;;;;5029110;28;20041;-66
2021/11/06 07:09:07;;;;;;;38.55;15.05;;;;;;;;;;5027861;28;20049;-66
2021/11/06 07:11:34;;;;;;;39.70;13.68;;;;;;;;;;5030030;28;20053;-66
2021/11/06 07:14:03;;;;;;;32.05;15.00;;;;;;;;;;5030573;28;20116;-66
2021/11/06 07:16:29;;;;;;;41.28;13.93;;;;;;;;;;5030598;28;20076;-66
2021/11/06 07:18:56;;;;;;;38.13;13.02;;;;;;;;;;5029258;28;20057;-67
2021/11/06 07:21:22;;;;;;;37.92;12.98;;;;;;;;;;5030610;28;20131;-67
2021/11/06 07:23:49;;;;;;;34.28;14.15;;;;;;;;;;5026160;28;20089;-67
2021/11/06 07:26:16;;;;;;;53.45;15.00;;;;;;;;;;5010651;28;20054;-67
2021/11/06 07:28:42;;;;;;;47.03;14.55;;;;;;;;;;5012452;28;20064;-67
2021/11/06 07:31:09;;;;;;;27.85;12.98;;;;;;;;;;5030220;28;20045;-67
2021/11/06 07:33:36;;;;;;;39.42;14.82;;;;;;;;;;5023260;28;20072;-67
2021/11/06 07:36:02;;;;;;;27.90;14.07;;;;;;;;;;5028382;28;20504;-67
2021/11/06 07:38:29;;;;;;;27.67;13.80;;;;;;;;;;5030149;28;20103;-67
2021/11/06 07:40:56;;;;;;;28.60;14.57;;;;;;;;;;5030273;28;20126;-67
2021/11/06 07:43:22;;;;;;;32.55;14.05;;;;;;;;;;5030135;28;20155;-67
2021/11/06 07:45:49;;;;;;;25.85;12.93;;;;;;;;;;5029812;28;20099;-67
2021/11/06 07:48:16;;;;;;;35.20;14.02;;;;;;;;;;5030104;28;20458;-67
2021/11/06 07:50:42;;;;;;;27.67;13.57;;;;;;;;;;5010791;28;20057;-67
2021/11/06 07:53:09;;;;;;;31.08;14.85;;;;;;;;;;5010120;28;20101;-67
2021/11/06 07:55:36;;;;;;;28.77;14.38;;;;;;;;;;5020221;28;20049;-67
2021/11/06 07:58:03;;;;;;;28.20;13.48;;;;;;;;;;5010017;28;20463;-67
2021/11/06 08:00:30;;;;;;;29.90;13.68;;;;;;;;;;5026193;28;20061;-67
2021/11/06 08:02:56;;;;;;;24.85;13.25;;;;;;;;;;5027975;28;20056;-68
2021/11/06 08:05:23;;;;;;;26.95;15.15;;;;;;;;;;5022074;28;20559;-67
2021/11/06 08:07:50;;;;;;;27.08;14.77;;;;;;;;;;5029746;28;20401;-67
2021/11/06 08:10:16;;;;;;;31.15;14.65;;;;;;;;;;5025427;28;20111;-70
2021/11/06 08:12:43;;;;;;;30.60;14.93;;;;;;;;;;5011613;28;20045;-69
2021/11/06 08:15:11;;;;;;;30.63;14.45;;;;;;;;;;5009939;28;20521;-69
2021/11/06 08:17:38;;;;;;;44.92;13.57;;;;;;;;;;5004949;28;20064;-69
2021/11/06 08:20:06;;;;;;;23.63;13.23;;;;;;;;;;5024324;28;20072;-69
2021/11/06 08:22:33;;;;;;;47.85;14.77;;;;;;;;;;5014277;28;20463;-68
2021/11/06 08:25:01;;;;;;;25.27;13.98;;;;;;;;;;5018111;28;20402;-70
2021/11/06 08:27:29;;;;;;;35.63;13.82;;;;;;;;;;5014941;28;20041;-69
2021/11/06 08:29:56;;;;;;;23.73;13.68;;;;;;;;;;5015345;28;20156;-68
2021/11/06 08:32:24;;;;;;;24.13;12.23;;;;;;;;;;5015934;28;20049;-68
2021/11/06 08:34:52;;;;;;;24.73;13.13;;;;;;;;;;5016224;28;20058;-68
2021/11/06 08:37:19;;;;;;;52.65;13.52;;;;;;;;;;5019917;28;20101;-70
2021/11/06 08:39:46;;;;;;;31.95;14.60;;;;;;;;;;5020270;28;20193;-71
2021/11/06 08:42:15;;;;;;;29.85;13.15;;;;;;;;;;5014622;28;20050;-71
2021/11/06 08:44:42;;;;;;;33.45;13.65;;;;;;;;;;5015858;28;20045;-71
2021/11/06 08:47:09;;;;;;;29.85;12.73;;;;;;;;;;5023787;28;20041;-71
2021/11/06 08:49:36;;;;;;;29.67;13.77;;;;;;;;;;5021478;28;20049;-71
2021/11/06 08:52:06;;;;;;;26.50;13.60;;;;;;;;;;5017657;28;20401;-71
2021/11/06 08:54:34;;;;;;;25.70;14.35;;;;;;;;;;5020448;28;20049;-70
2021/11/06 08:57:04;;;;;;;26.70;14.05;;;;;;;;;;5014692;28;20054;-69
2021/11/06 08:59:35;;;;;;;22.83;12.80;;;;;;;;;;5015765;28;20112;-69
2021/11/06 09:02:02;;;;;;;25.92;12.63;;;;;;;;;;5023327;28;20410;-70
2021/11/06 09:04:29;;;;;;;25.67;13.65;;;;;;;;;;5019110;28;20046;-68
2021/11/06 09:06:56;;;;;;;26.90;13.20;;;;;;;;;;5017598;28;20049;-68
2021/11/06 09:09:23;;;;;;;24.67;13.48;;;;;;;;;;5015828;28;20479;-71
2021/11/06 09:11:53;;;;;;;21.38;12.35;;;;;;;;;;5019113;28;20049;-69
2021/11/06 09:14:20;;;;;;;28.20;13.98;;;;;;;;;;5018187;28;20064;-68
2021/11/06 09:16:47;;;;;;;22.77;14.10;;;;;;;;;;5013465;28;20053;-67
2021/11/06 09:19:14;;;;;;;24.13;13.43;;;;;;;;;;5016494;28;20054;-67
2021/11/06 09:21:42;;;;;;;27.05;13.35;;;;;;;;;;5017384;28;20053;-68
2021/11/06 09:24:10;;;;;;;23.85;14.02;;;;;;;;;;5018983;28;20054;-69
2021/11/06 09:26:39;;;;;;;25.25;13.57;;;;;;;;;;5015640;28;20424;-70
2021/11/06 09:29:07;;;;;;;23.15;13.93;;;;;;;;;;5019158;28;20064;-70
2021/11/06 09:31:34;;;;;;;23.02;13.38;;;;;;;;;;5012963;28;20078;-68
2021/11/06 09:34:02;;;;;;;23.42;13.60;;;;;;;;;;5019023;28;20412;-69
2021/11/06 09:36:32;;;;;;;20.88;13.32;;;;;;;;;;5021023;28;20141;-69
2021/11/06 09:39:02;;;;;;;21.98;13.48;;;;;;;;;;5021030;28;20065;-69
2021/11/06 09:41:29;;;;;;;36.65;23.10;;;;;;;;;;5019204;28;20050;-67
2021/11/06 09:43:57;;;;;;;27.63;16.80;;;;;;;;;;5021196;28;20100;-68
2021/11/06 09:46:25;;;;;;;23.33;15.25;;;;;;;;;;5019877;28;20049;-69
2021/11/06 09:48:53;;;;;;;26.20;14.70;;;;;;;;;;5018321;28;20068;-69
2021/11/06 09:51:20;;;;;;;24.77;14.27;;;;;;;;;;5020617;28;20053;-68
2021/11/06 09:56:15;;;;;;;26.65;14.98;;;;;;;;;;5044057;23;20050;-67
2021/11/06 09:58:42;;;;;;;22.90;14.60;;;;;;;;;;5030216;28;20103;-67
2021/11/06 10:01:09;;;;;;;23.95;14.10;;;;;;;;;;5016145;28;20046;-66
2021/11/06 10:03:42;;;;;;;20.85;13.50;;;;;;;;;;5025282;28;20084;-67
2021/11/06 10:06:18;;;;;;;22.48;14.43;;;;;;;;;;5026218;28;20053;-66
2021/11/06 10:08:45;;;;;;;22.20;13.90;;;;;;;;;;5018504;28;20077;-67
2021/11/06 10:11:13;;;;;;;20.20;14.10;;;;;;;;;;5012315;28;20054;-69
2021/11/06 10:13:55;;;;;;;22.45;14.90;;;;;;;;;;5004070;28;20251;-68
2021/11/06 10:16:32;;;;;;;22.95;14.68;;;;;;;;;;5006407;28;20769;-68
2021/11/06 10:19:10;;;;;;;22.33;14.73;;;;;;;;;;5023717;28;20558;-71
2021/11/06 10:21:41;;;;;;;26.38;17.23;;;;;;;;;;5020990;28;20056;-69
2021/11/06 10:24:08;;;;;;;26.05;19.08;;;;;;;;;;5020988;28;20057;-74
2021/11/06 10:26:35;;;;;;;29.08;17.90;;;;;;;;;;5002747;28;20046;-69
2021/11/06 10:29:16;;;;;;;25.35;16.65;;;;;;;;;;5022168;28;20049;-68
2021/11/06 10:31:53;;;;;;;26.25;15.80;;;;;;;;;;5018221;28;20138;-69
2021/11/06 10:34:25;;;;;;;22.30;15.23;;;;;;;;;;5025255;28;20056;-67
2021/11/06 10:36:59;;;;;;;27.00;18.73;;;;;;;;;;5018000;28;20432;-67
2021/11/06 10:39:27;;;;;;;26.08;18.05;;;;;;;;;;5020069;28;20053;-66
2021/11/06 10:42:11;;;;;;;26.10;16.15;;;;;;;;;;5014341;28;20049;-67
2021/11/06 10:44:40;;;;;;;21.70;14.75;;;;;;;;;;5025999;28;20046;-76
2021/11/06 10:47:08;;;;;;;23.40;15.60;;;;;;;;;;5001544;28;20497;-69
2021/11/06 10:49:36;;;;;;;25.92;16.75;;;;;;;;;;5003197;28;20045;-72
2021/11/06 10:52:05;;;;;;;19.73;14.13;;;;;;;;;;5017321;28;20070;-69
2021/11/06 10:54:32;;;;;;;22.33;16.63;;;;;;;;;;5025781;28;20504;-72
2021/11/06 10:57:03;;;;;;;20.40;14.05;;;;;;;;;;5002093;28;20053;-72
2021/11/06 10:59:30;;;;;;;20.88;14.38;;;;;;;;;;5004872;28;20520;-72
2021/11/06 11:01:58;;;;;;;24.20;15.93;;;;;;;;;;5003175;28;20045;-73
2021/11/06 11:04:25;;;;;;;22.67;14.75;;;;;;;;;;5021034;28;20137;-67
2021/11/06 11:06:57;;;;;;;25.92;17.10;;;;;;;;;;5039299;28;20048;-70
2021/11/06 11:09:26;;;;;;;23.38;15.52;;;;;;;;;;5001857;28;20147;-66
2021/11/06 11:11:57;;;;;;;22.80;15.43;;;;;;;;;;5019790;28;20049;-66
2021/11/06 11:14:25;;;;;;;24.05;16.13;;;;;;;;;;5002925;28;20054;-67
2021/11/06 11:16:56;;;;;;;24.33;16.33;;;;;;;;;;5018605;28;20185;-66
2021/11/06 11:19:44;;;;;;;28.45;16.65;;;;;;;;;;5021332;28;20069;-67
2021/11/06 11:22:25;;;;;;;25.25;17.15;;;;;;;;;;5018888;28;20050;-66
2021/11/06 11:24:52;;;;;;;27.05;18.33;;;;;;;;;;5020490;28;20496;-72
2021/11/06 11:27:39;;;;;;;21.63;16.23;;;;;;;;;;4989723;28;20046;-69
2021/11/06 11:30:07;;;;;;;26.95;17.58;;;;;;;;;;5004506;28;20100;-70
2021/11/06 11:32:34;;;;;;;24.38;15.90;;;;;;;;;;5000527;28;20050;-68
2021/11/06 11:35:00;;;;;;;24.65;16.10;;;;;;;;;;5016886;28;20505;-65
2021/11/06 11:37:27;;;;;;;22.20;16.30;;;;;;;;;;5018930;28;20193;-65
2021/11/06 11:39:54;;;;;;;24.58;16.55;;;;;;;;;;5023741;28;20052;-65
2021/11/06 11:42:54;;;;;;;24.02;16.10;;;;;;;;;;5003003;28;20061;-67
2021/11/06 11:45:58;;;;;;;27.58;18.77;;;;;;;;;;5020853;28;20053;-66
2021/11/06 11:48:26;;;;;;;26.05;16.67;;;;;;;;;;5004464;28;20050;-68
2021/11/06 11:51:01;;;;;;;26.98;17.90;;;;;;;;;;5018294;28;20046;-72
2021/11/06 11:53:33;;;;;;;26.75;18.13;;;;;;;;;;5019812;28;20492;-72
2021/11/06 11:56:06;;;;;;;27.50;17.70;;;;;;;;;;5000943;28;20132;-71
2021/11/06 11:58:38;;;;;;;23.77;16.33;;;;;;;;;;4986536;28;20455;-69
2021/11/06 12:01:09;;;;;;;24.20;17.38;;;;;;;;;;5038912;28;20057;-71
2021/11/06 12:03:39;;;;;;;28.88;19.05;;;;;;;;;;5001236;28;20045;-70
2021/11/06 12:06:30;;;;;;;28.75;20.00;;;;;;;;;;5020238;28;20061;-68
2021/11/06 12:08:58;;;;;;;24.05;16.98;;;;;;;;;;5022217;28;20119;-67
2021/11/06 12:11:28;;;;;;;27.13;17.52;;;;;;;;;;5004166;28;20097;-72
2021/11/06 12:13:56;;;;;;;24.17;16.52;;;;;;;;;;5017467;28;20108;-72
2021/11/06 12:16:25;;;;;;;28.13;17.70;;;;;;;;;;5003679;28;20042;-74
2021/11/06 12:19:00;;;;;;;27.77;18.35;;;;;;;;;;5003616;28;20073;-73
2021/11/06 12:21:33;;;;;;;28.20;19.67;;;;;;;;;;5006512;28;20045;-72
2021/11/06 12:24:19;;;;;;;29.98;20.75;;;;;;;;;;5018993;28;20050;-72
2021/11/06 12:26:46;;;;;;;32.05;20.70;;;;;;;;;;5018384;28;20053;-71
2021/11/06 12:29:17;;;;;;;27.42;19.95;;;;;;;;;;5019069;28;20112;-73
2021/11/06 12:31:46;;;;;;;28.38;20.17;;;;;;;;;;5022226;28;20053;-74
2021/11/06 12:34:34;;;;;;;27.20;18.92;;;;;;;;;;5004903;28;20065;-73
2021/11/06 12:37:03;;;;;;;27.00;18.90;;;;;;;;;;5019947;28;20674;-74
2021/11/06 12:39:54;;;;;;;30.17;21.17;;;;;;;;;;5003587;28;20056;-72
2021/11/06 12:42:23;;;;;;;26.75;19.42;;;;;;;;;;5016973;28;20054;-72
2021/11/06 12:44:58;;;;;;;27.27;19.70;;;;;;;;;;5000667;28;20052;-72
2021/11/06 12:47:26;;;;;;;26.85;19.55;;;;;;;;;;5023879;28;20049;-68
2021/11/06 12:49:53;;;;;;;29.15;19.35;;;;;;;;;;5002868;28;20052;-68
2021/11/06 12:52:21;;;;;;;31.15;21.27;;;;;;;;;;5000886;28;20492;-72
2021/11/06 12:54:49;;;;;;;26.70;19.23;;;;;;;;;;4999499;28;20104;-69
2021/11/06 12:57:30;;;;;;;26.73;19.65;;;;;;;;;;5004314;28;20049;-70
2021/11/06 12:59:56;;;;;;;29.45;20.95;;;;;;;;;;5018530;28;20053;-68
2021/11/06 13:02:23;;;;;;;29.17;19.75;;;;;;;;;;5015302;28;20050;-71
2021/11/06 13:04:58;;;;;;;29.88;20.77;;;;;;;;;;5000521;28;20076;-66
2021/11/06 13:07:26;;;;;;;29.15;19.58;;;;;;;;;;5015135;28;20045;-69
2021/11/06 13:09:53;;;;;;;28.90;20.05;;;;;;;;;;5010005;28;20042;-67
2021/11/06 13:12:20;;;;;;;28.90;21.17;;;;;;;;;;5020978;28;20290;-70
2021/11/06 13:15:01;;;;;;;29.55;19.77;;;;;;;;;;5020103;28;20073;-66
2021/11/06 13:17:34;;;;;;;32.15;19.92;;;;;;;;;;5023660;28;20526;-68
2021/11/06 13:20:07;;;;;;;32.72;22.02;;;;;;;;;;5005432;28;20104;-69
2021/11/06 13:22:34;;;;;;;28.13;20.48;;;;;;;;;;5027133;28;20045;-69
2021/11/06 13:25:07;;;;;;;28.92;20.42;;;;;;;;;;5021392;28;20460;-69
2021/11/06 13:27:37;;;;;;;27.65;20.45;;;;;;;;;;5008313;28;20049;-68
2021/11/06 13:30:16;;;;;;;29.90;20.52;;;;;;;;;;5023718;28;20467;-66
2021/11/06 13:32:51;;;;;;;29.25;19.80;;;;;;;;;;5022367;28;20068;-65
2021/11/06 13:35:18;;;;;;;27.40;20.30;;;;;;;;;;5024913;28;20184;-66
2021/11/06 13:37:46;;;;;;;28.45;19.63;;;;;;;;;;5021219;28;20065;-65
2021/11/06 13:40:13;;;;;;;26.73;19.85;;;;;;;;;;5021875;28;20403;-65
2021/11/06 13:42:39;;;;;;;26.83;19.50;;;;;;;;;;5005323;28;20446;-65
2021/11/06 13:45:10;;;;;;;29.75;20.60;;;;;;;;;;5019695;28;20065;-65
2021/11/06 13:47:48;;;;;;;25.33;18.15;;;;;;;;;;5021667;28;20096;-65
2021/11/06 13:50:21;;;;;;;27.60;20.25;;;;;;;;;;5020761;28;20050;-65
2021/11/06 13:52:58;;;;;;;29.48;20.58;;;;;;;;;;5018798;28;20042;-65
2021/11/06 13:55:25;;;;;;;28.63;20.70;;;;;;;;;;5023089;28;20103;-65
2021/11/06 13:57:55;;;;;;;29.90;20.42;;;;;;;;;;5021416;28;20419;-65
2021/11/06 14:00:22;;;;;;;29.85;20.70;;;;;;;;;;5020076;28;20081;-65
2021/11/06 14:02:50;;;;;;;28.48;19.63;;;;;;;;;;4987838;28;20053;-65
2021/11/06 14:05:19;;;;;;;28.60;19.77;;;;;;;;;;5019764;28;20504;-65
2021/11/06 14:07:52;;;;;;;26.83;18.35;;;;;;;;;;5021464;28;20111;-65
2021/11/06 14:10:29;;;;;;;28.63;19.88;;;;;;;;;;5018552;28;20096;-65
2021/11/06 14:13:06;;;;;;;27.63;19.13;;;;;;;;;;5020610;28;20452;-65
2021/11/06 14:15:51;;;;;;;31.25;19.08;;;;;;;;;;5022944;28;20041;-65
2021/11/06 14:18:31;;;;;;;29.65;20.52;;;;;;;;;;5023875;28;20046;-65
2021/11/06 14:21:03;;;;;;;30.00;19.88;;;;;;;;;;5017269;28;20064;-65
2021/11/06 14:23:37;;;;;;;30.25;20.42;;;;;;;;;;5024236;28;20050;-65
2021/11/06 14:26:19;;;;;;;36.38;23.10;;;;;;;;;;5004922;28;20061;-65